EmailTwitter


Surface observations / France / LFBD (07510)

Regions: Quebec | Canada | USA | Europe | France | UK | Elsewhere
Station
Display
Info & Location for LFBD (07510) | Help decoding METAR

Weather Conditions observed on 2018/05/23 at 20:30 UTC at BORDEAUX/MERIGNA, FR (LFBD)

Temperature: 19.0 Celsius.

Dewpoint: 14.0 Celsius.

Relative Humidity: 73%

Winds: Northwest at 7 km/h or 4 knots.

Mean Sea level Pressure: 101.60 kilopascals.

Coded METAR:

LFBD 232030Z AUTO 32004KT 300V360 CAVOK 19/14 Q1016 NOSIG=